createdAt,value
2023-09-27T00:00:50.249Z,11.80
2023-09-27T00:03:17.041Z,11.80
2023-09-27T00:05:43.715Z,12.50
2023-09-27T00:08:11.724Z,12.00
2023-09-27T00:10:38.190Z,11.90
2023-09-27T00:13:04.990Z,11.00
2023-09-27T00:15:31.481Z,11.20
2023-09-27T00:17:59.156Z,11.50
2023-09-27T00:20:25.708Z,11.70
2023-09-27T00:22:52.273Z,12.00
2023-09-27T00:25:19.927Z,12.10
2023-09-27T00:27:46.672Z,13.30
2023-09-27T00:30:14.730Z,14.80
2023-09-27T00:32:42.776Z,13.20
2023-09-27T00:35:12.903Z,13.80
2023-09-27T00:37:39.504Z,12.00
2023-09-27T00:40:10.871Z,12.00
2023-09-27T00:42:37.800Z,11.90
2023-09-27T00:45:05.933Z,12.00
2023-09-27T00:47:34.319Z,11.60
2023-09-27T00:50:02.108Z,11.70
2023-09-27T00:52:28.950Z,12.20
2023-09-27T00:54:57.109Z,11.80
2023-09-27T00:57:23.806Z,12.00
2023-09-27T00:59:50.431Z,12.40
2023-09-27T01:02:18.046Z,12.60
2023-09-27T01:04:44.741Z,11.20
2023-09-27T01:07:11.380Z,11.70
2023-09-27T01:09:38.471Z,11.40
2023-09-27T01:12:05.760Z,11.20
2023-09-27T01:14:32.358Z,13.00
2023-09-27T01:17:10.085Z,13.10
2023-09-27T01:19:38.864Z,12.40
2023-09-27T01:22:05.623Z,13.20
2023-09-27T01:24:33.478Z,12.10
2023-09-27T01:27:00.087Z,12.30
2023-09-27T01:29:26.923Z,11.50
2023-09-27T01:31:53.548Z,11.50
2023-09-27T01:34:20.598Z,10.90
2023-09-27T01:36:47.300Z,10.90
2023-09-27T01:39:13.952Z,10.50
2023-09-27T01:41:40.483Z,12.10
2023-09-27T01:44:07.230Z,12.70
2023-09-27T01:46:33.855Z,12.20
2023-09-27T01:49:01.002Z,12.00
2023-09-27T01:51:27.739Z,11.80
2023-09-27T01:53:54.334Z,10.70
2023-09-27T01:56:20.867Z,10.60
2023-09-27T01:58:47.593Z,10.40
2023-09-27T02:01:14.224Z,10.80
2023-09-27T02:03:43.260Z,10.40
2023-09-27T02:06:09.936Z,10.50
2023-09-27T02:08:36.730Z,11.80
2023-09-27T02:11:03.673Z,10.90
2023-09-27T02:13:30.303Z,10.50
2023-09-27T02:15:57.037Z,10.70
2023-09-27T02:18:23.745Z,10.40
2023-09-27T02:20:50.203Z,11.20
2023-09-27T02:23:16.852Z,11.50
2023-09-27T02:25:43.558Z,10.00
2023-09-27T02:28:10.980Z,10.40
2023-09-27T02:30:38.737Z,11.10
2023-09-27T02:33:05.425Z,11.10
2023-09-27T02:35:32.223Z,11.40
2023-09-27T02:37:59.013Z,11.60
2023-09-27T02:40:25.956Z,11.60
2023-09-27T02:42:54.457Z,11.00
2023-09-27T02:45:21.104Z,11.20
2023-09-27T02:47:48.343Z,11.20
2023-09-27T02:50:15.405Z,11.50
2023-09-27T02:52:42.238Z,11.50
2023-09-27T02:55:12.393Z,11.50
2023-09-27T02:57:39.220Z,10.30
2023-09-27T03:00:06.906Z,11.30
2023-09-27T03:02:34.036Z,12.00
2023-09-27T03:05:00.987Z,12.00
2023-09-27T03:10:17.563Z,14.10
2023-09-27T03:12:47.069Z,12.80
2023-09-27T03:15:14.081Z,13.20
2023-09-27T03:17:43.023Z,12.20
2023-09-27T03:20:16.595Z,12.80
2023-09-27T03:22:43.385Z,13.10
2023-09-27T03:25:10.411Z,13.00
2023-09-27T03:27:37.456Z,12.60
2023-09-27T03:30:05.145Z,13.90
2023-09-27T03:32:33.428Z,13.50
2023-09-27T03:35:00.368Z,13.40
2023-09-27T03:37:27.382Z,12.30
2023-09-27T03:39:54.056Z,12.20
2023-09-27T03:42:20.842Z,12.00
2023-09-27T03:44:50.935Z,12.10
2023-09-27T03:47:17.804Z,12.30
2023-09-27T03:49:44.682Z,11.90
2023-09-27T03:52:12.142Z,11.60
2023-09-27T03:54:38.883Z,11.00
2023-09-27T03:57:05.930Z,10.90
2023-09-27T03:59:32.698Z,10.80
2023-09-27T04:02:00.353Z,10.40
2023-09-27T04:04:27.232Z,10.80
2023-09-27T04:06:54.366Z,10.10
2023-09-27T04:09:21.068Z,10.90
2023-09-27T04:11:47.562Z,10.10
2023-09-27T04:14:14.198Z,10.50
2023-09-27T04:16:41.061Z,10.40
2023-09-27T04:19:08.761Z,10.50
2023-09-27T04:21:35.312Z,10.10
2023-09-27T04:24:04.296Z,10.70
2023-09-27T04:26:30.911Z,11.20
2023-09-27T04:28:57.424Z,10.50
2023-09-27T04:31:24.692Z,10.50
2023-09-27T04:33:52.076Z,10.10
2023-09-27T04:36:18.747Z,10.80
2023-09-27T04:38:46.168Z,10.60
2023-09-27T04:41:16.790Z,10.90
2023-09-27T04:43:44.153Z,10.30
2023-09-27T04:46:14.108Z,10.40
2023-09-27T04:48:40.636Z,11.20
2023-09-27T04:51:07.518Z,10.30
2023-09-27T04:53:37.724Z,9.60
2023-09-27T04:56:07.339Z,9.70
2023-09-27T04:58:35.249Z,9.80
2023-09-27T05:01:03.946Z,10.00
2023-09-27T05:03:30.854Z,11.00
2023-09-27T05:05:57.622Z,10.20
2023-09-27T05:08:26.625Z,10.10
2023-09-27T05:10:53.293Z,9.80
2023-09-27T05:13:22.138Z,10.40
2023-09-27T05:15:49.715Z,10.70
2023-09-27T05:18:16.419Z,12.20
2023-09-27T05:20:44.486Z,12.00
2023-09-27T05:23:11.818Z,12.90
2023-09-27T05:25:38.940Z,12.60
2023-09-27T05:28:05.715Z,12.10
2023-09-27T05:30:32.709Z,11.70
2023-09-27T05:32:59.326Z,12.00
2023-09-27T05:35:26.070Z,10.00
2023-09-27T05:37:53.353Z,11.20
2023-09-27T05:40:19.956Z,10.30
2023-09-27T05:42:47.253Z,10.40
2023-09-27T05:45:14.103Z,9.70
2023-09-27T05:47:40.916Z,10.30
2023-09-27T05:50:14.689Z,10.10
2023-09-27T05:52:44.130Z,10.70
2023-09-27T05:55:10.819Z,10.60
2023-09-27T05:57:37.394Z,11.10
2023-09-27T06:00:15.751Z,10.90
2023-09-27T06:02:43.736Z,11.70
2023-09-27T06:05:10.486Z,10.60
2023-09-27T06:07:37.419Z,10.50
2023-09-27T06:10:06.517Z,10.20
2023-09-27T06:12:34.097Z,11.60
2023-09-27T06:15:00.682Z,9.40
2023-09-27T06:17:27.828Z,10.20
2023-09-27T06:19:55.507Z,10.10
2023-09-27T06:22:23.643Z,10.80
2023-09-27T06:24:50.163Z,9.20
2023-09-27T06:27:17.506Z,9.70
2023-09-27T06:29:44.210Z,9.50
2023-09-27T06:32:11.549Z,9.90
2023-09-27T06:34:38.810Z,9.60
2023-09-27T06:37:07.923Z,11.30
2023-09-27T06:39:34.582Z,10.70
2023-09-27T06:42:01.132Z,10.90
2023-09-27T06:44:27.841Z,11.00
2023-09-27T06:46:55.043Z,9.50
2023-09-27T06:49:21.580Z,9.10
2023-09-27T06:51:48.776Z,9.40
2023-09-27T06:54:15.581Z,10.60
2023-09-27T06:56:43.143Z,11.20
2023-09-27T06:59:10.355Z,9.90
2023-09-27T07:01:37.101Z,9.70
2023-09-27T07:04:04.701Z,11.00
2023-09-27T07:06:31.479Z,10.00
2023-09-27T07:08:58.398Z,9.90
2023-09-27T07:11:24.972Z,9.70
2023-09-27T07:13:52.598Z,9.30
2023-09-27T07:16:27.102Z,10.30
2023-09-27T07:18:54.291Z,11.10
2023-09-27T07:21:21.358Z,9.80
2023-09-27T07:23:49.971Z,10.40
2023-09-27T07:26:19.906Z,10.10
2023-09-27T07:28:46.803Z,9.90
2023-09-27T07:31:17.724Z,10.70
2023-09-27T07:33:46.047Z,10.90
2023-09-27T07:36:13.119Z,10.30
2023-09-27T07:38:40.148Z,10.50
2023-09-27T07:41:09.197Z,9.60
2023-09-27T07:43:36.896Z,9.70
2023-09-27T07:46:07.168Z,10.40
2023-09-27T07:48:35.808Z,9.20
2023-09-27T07:51:03.457Z,9.60
2023-09-27T07:53:30.388Z,9.70
2023-09-27T07:55:58.046Z,9.10
2023-09-27T07:58:24.921Z,8.00
2023-09-27T08:00:51.748Z,9.20
2023-09-27T08:03:19.919Z,9.30
2023-09-27T08:05:46.955Z,8.50
2023-09-27T08:08:17.240Z,9.20
2023-09-27T08:10:43.968Z,9.40
2023-09-27T08:13:12.192Z,9.10
2023-09-27T08:15:40.178Z,8.20
2023-09-27T08:18:07.668Z,9.80
2023-09-27T08:20:35.754Z,9.20
2023-09-27T08:23:03.423Z,8.70
2023-09-27T08:25:30.820Z,8.70
2023-09-27T08:27:57.571Z,7.80
2023-09-27T08:30:24.432Z,8.40
2023-09-27T08:32:52.084Z,9.80
2023-09-27T08:35:19.384Z,8.60
2023-09-27T08:37:46.308Z,9.70
2023-09-27T08:40:15.902Z,8.50
2023-09-27T08:42:43.532Z,8.70
2023-09-27T08:45:12.714Z,8.50
2023-09-27T08:47:41.859Z,8.50
2023-09-27T08:50:11.982Z,8.10
2023-09-27T08:52:38.922Z,7.90
2023-09-27T08:55:07.422Z,8.00
2023-09-27T08:57:34.292Z,8.70
2023-09-27T09:00:01.129Z,8.30
2023-09-27T09:02:28.004Z,7.90
2023-09-27T09:04:55.281Z,8.10
2023-09-27T09:07:21.848Z,8.30
2023-09-27T09:09:49.330Z,8.00
2023-09-27T09:12:34.968Z,7.80
2023-09-27T09:15:05.570Z,8.60
2023-09-27T09:17:35.669Z,9.00
2023-09-27T09:20:16.917Z,9.30
2023-09-27T09:22:49.880Z,7.90
2023-09-27T09:25:16.522Z,7.90
2023-09-27T09:27:45.644Z,7.60
2023-09-27T09:30:13.041Z,8.50
2023-09-27T09:32:57.863Z,7.60
2023-09-27T09:35:32.416Z,8.20
2023-09-27T09:38:00.363Z,8.10
2023-09-27T09:40:27.192Z,7.60
2023-09-27T09:42:53.858Z,8.20
2023-09-27T09:45:20.873Z,8.20
2023-09-27T09:47:47.699Z,8.20
2023-09-27T09:50:19.117Z,7.80
2023-09-27T09:52:57.982Z,8.90
2023-09-27T09:55:52.033Z,8.10
2023-09-27T09:58:31.986Z,7.40
2023-09-27T10:00:58.993Z,7.70
2023-09-27T10:03:28.053Z,7.50
2023-09-27T10:05:55.517Z,7.60
2023-09-27T10:08:23.715Z,8.10
2023-09-27T10:10:50.251Z,7.60
2023-09-27T10:13:18.816Z,8.90
2023-09-27T10:15:45.552Z,8.10
2023-09-27T10:18:24.413Z,8.40
2023-09-27T10:21:07.608Z,7.20
2023-09-27T10:23:58.206Z,7.60
2023-09-27T10:26:27.951Z,7.50
2023-09-27T10:29:04.092Z,7.10
2023-09-27T10:31:31.527Z,7.40
2023-09-27T10:33:58.124Z,7.70
2023-09-27T10:36:24.716Z,7.80
2023-09-27T10:38:51.375Z,7.90
2023-09-27T10:41:34.003Z,7.30
2023-09-27T10:44:02.450Z,8.10
2023-09-27T10:47:09.617Z,7.20
2023-09-27T10:49:39.834Z,7.40
2023-09-27T10:52:16.734Z,6.70
2023-09-27T10:54:44.294Z,7.30
2023-09-27T10:57:10.982Z,7.40
2023-09-27T10:59:37.518Z,6.60
2023-09-27T11:02:04.436Z,7.40
2023-09-27T11:04:33.111Z,7.30
2023-09-27T11:06:59.974Z,7.50
2023-09-27T11:09:27.696Z,8.10
2023-09-27T11:11:54.915Z,7.90
2023-09-27T11:14:28.550Z,7.00
2023-09-27T11:16:55.290Z,7.20
2023-09-27T11:19:29.178Z,7.60
2023-09-27T11:21:55.815Z,7.10
2023-09-27T11:24:22.777Z,7.40
2023-09-27T11:26:49.484Z,7.50
2023-09-27T11:29:16.833Z,7.10
2023-09-27T11:31:43.427Z,7.10
2023-09-27T11:34:17.063Z,7.00
2023-09-27T11:36:53.994Z,6.80
2023-09-27T11:39:28.429Z,6.80
2023-09-27T11:41:59.394Z,7.10
2023-09-27T11:44:27.043Z,7.30
2023-09-27T11:47:05.495Z,6.20
2023-09-27T11:49:33.354Z,6.40
2023-09-27T11:52:03.471Z,6.40
2023-09-27T11:54:30.378Z,6.20
2023-09-27T11:56:57.272Z,5.80
2023-09-27T11:59:24.286Z,6.30
2023-09-27T12:01:51.015Z,6.00
2023-09-27T12:04:19.560Z,5.60
2023-09-27T12:06:46.616Z,6.30
2023-09-27T12:09:15.024Z,5.20
2023-09-27T12:11:41.932Z,5.60
2023-09-27T12:14:08.670Z,5.60
2023-09-27T12:16:35.477Z,5.40
2023-09-27T12:19:03.334Z,6.20
2023-09-27T12:21:35.020Z,6.00
2023-09-27T12:24:03.102Z,5.80
2023-09-27T12:26:30.770Z,5.70
2023-09-27T12:28:57.871Z,5.90
2023-09-27T12:31:24.949Z,6.20
2023-09-27T12:33:51.883Z,5.90
2023-09-27T12:36:18.727Z,5.40
2023-09-27T12:38:45.376Z,5.40
2023-09-27T12:41:12.150Z,6.10
2023-09-27T12:43:40.251Z,6.00
2023-09-27T12:46:07.269Z,5.60
2023-09-27T12:48:35.249Z,5.30
2023-09-27T12:51:02.560Z,6.20
2023-09-27T12:53:30.291Z,5.30
2023-09-27T12:55:56.918Z,5.50
2023-09-27T12:58:23.578Z,5.40
2023-09-27T13:00:50.307Z,5.60
2023-09-27T13:03:17.099Z,5.30
2023-09-27T13:05:43.964Z,5.70
2023-09-27T13:08:10.758Z,5.90
2023-09-27T13:10:39.366Z,5.40
2023-09-27T13:13:05.931Z,5.60
2023-09-27T13:15:35.517Z,5.30
2023-09-27T13:18:02.833Z,5.20
2023-09-27T13:20:29.756Z,5.00
2023-09-27T13:22:56.387Z,5.30
2023-09-27T13:25:22.991Z,5.10
2023-09-27T13:27:49.680Z,4.60
2023-09-27T13:30:33.152Z,5.00
2023-09-27T13:33:03.488Z,5.30
2023-09-27T13:35:31.006Z,5.30
2023-09-27T13:37:59.138Z,4.70
2023-09-27T13:40:25.684Z,5.00
2023-09-27T13:42:52.337Z,4.70
2023-09-27T13:45:19.076Z,4.90
2023-09-27T13:47:46.783Z,4.60
2023-09-27T13:50:13.688Z,5.00
2023-09-27T13:52:41.221Z,4.30
2023-09-27T13:55:11.651Z,4.20
2023-09-27T13:57:41.631Z,4.50
2023-09-27T14:00:09.501Z,4.80
2023-09-27T14:02:36.582Z,4.10
2023-09-27T14:05:04.062Z,4.50
2023-09-27T14:07:31.872Z,4.00
2023-09-27T14:09:58.665Z,3.90
2023-09-27T14:12:25.416Z,4.50
2023-09-27T14:14:52.373Z,4.60
2023-09-27T14:17:19.790Z,4.50
2023-09-27T14:19:46.418Z,4.20
2023-09-27T14:22:13.772Z,4.40
2023-09-27T14:24:40.231Z,4.00
2023-09-27T14:27:07.853Z,4.10
2023-09-27T14:29:36.022Z,4.30
2023-09-27T14:32:06.641Z,4.50
2023-09-27T14:37:08.139Z,4.50
2023-09-27T14:39:35.617Z,4.80
2023-09-27T14:42:03.408Z,4.30
2023-09-27T14:44:31.419Z,4.50
2023-09-27T14:46:58.192Z,4.70
2023-09-27T14:49:25.322Z,3.90
2023-09-27T14:51:52.901Z,4.60
2023-09-27T14:54:19.578Z,4.60
2023-09-27T14:56:47.003Z,5.60
2023-09-27T14:59:13.586Z,6.00
2023-09-27T15:01:40.233Z,7.40
2023-09-27T15:04:07.454Z,5.80
2023-09-27T15:06:34.064Z,5.60
2023-09-27T15:09:00.729Z,5.10
2023-09-27T15:11:27.333Z,5.20
2023-09-27T15:13:54.387Z,4.90
2023-09-27T15:16:21.376Z,4.90
2023-09-27T15:18:48.398Z,4.80
2023-09-27T15:21:15.023Z,4.80
2023-09-27T15:23:42.139Z,5.30
2023-09-27T15:27:25.558Z,5.40
2023-09-27T15:29:52.960Z,5.20
2023-09-27T15:32:20.360Z,4.80
2023-09-27T15:34:49.263Z,5.50
2023-09-27T15:37:16.816Z,5.00
2023-09-27T15:39:44.245Z,4.90
2023-09-27T15:42:11.965Z,4.80
2023-09-27T15:44:40.129Z,5.50
2023-09-27T15:47:08.408Z,4.80
2023-09-27T15:49:36.230Z,4.80
2023-09-27T15:52:03.775Z,5.10
2023-09-27T15:54:31.139Z,5.00
2023-09-27T15:56:58.569Z,5.10
2023-09-27T15:59:26.067Z,5.20
2023-09-27T16:01:53.654Z,4.60
2023-09-27T16:04:21.101Z,4.90
2023-09-27T16:06:48.565Z,5.30
2023-09-27T16:09:16.651Z,4.80
2023-09-27T16:11:44.552Z,5.00
2023-09-27T16:14:13.252Z,4.30
2023-09-27T16:16:40.908Z,4.70
2023-09-27T16:19:11.120Z,4.80
2023-09-27T16:21:38.618Z,5.10
2023-09-27T16:24:06.302Z,4.40
2023-09-27T16:26:33.847Z,4.40
2023-09-27T16:29:01.763Z,4.80
2023-09-27T16:31:34.030Z,4.60
2023-09-27T16:34:02.348Z,4.90
2023-09-27T16:36:30.722Z,5.10
2023-09-27T16:38:58.345Z,5.00
2023-09-27T16:41:25.848Z,4.90
2023-09-27T16:43:53.550Z,4.80
2023-09-27T16:46:21.228Z,4.90
2023-09-27T16:48:49.201Z,5.30
2023-09-27T16:51:16.763Z,5.70
2023-09-27T16:53:44.475Z,5.80
2023-09-27T16:56:12.408Z,5.80
2023-09-27T16:58:39.932Z,6.30
2023-09-27T17:01:07.475Z,5.80
2023-09-27T17:03:35.091Z,5.90
2023-09-27T17:06:04.081Z,5.40
2023-09-27T17:08:31.495Z,6.10
2023-09-27T17:10:58.999Z,5.50
2023-09-27T17:13:26.507Z,5.30
2023-09-27T17:15:54.035Z,5.30
2023-09-27T17:18:21.613Z,5.30
2023-09-27T17:20:49.072Z,5.40
2023-09-27T17:23:16.485Z,5.60
2023-09-27T17:25:44.032Z,5.10
2023-09-27T17:28:13.612Z,4.90
2023-09-27T17:30:41.740Z,6.00
2023-09-27T17:33:09.384Z,5.10
2023-09-27T17:35:36.914Z,5.60
2023-09-27T17:38:04.614Z,5.40
2023-09-27T17:40:32.092Z,5.00
2023-09-27T17:42:59.634Z,5.00
2023-09-27T17:45:27.308Z,5.00
2023-09-27T17:47:54.810Z,5.20
2023-09-27T17:50:22.378Z,5.30
2023-09-27T17:52:50.122Z,5.20
2023-09-27T17:55:17.700Z,5.10
2023-09-27T17:57:45.147Z,5.40
2023-09-27T18:00:13.688Z,4.80
2023-09-27T18:02:41.613Z,5.10
2023-09-27T18:05:11.518Z,5.40
2023-09-27T18:07:38.997Z,4.80
2023-09-27T18:10:07.278Z,4.90
2023-09-27T18:12:34.691Z,5.20
2023-09-27T18:15:17.509Z,5.40
2023-09-27T18:17:53.318Z,5.10
2023-09-27T18:20:20.854Z,5.10
2023-09-27T18:22:48.274Z,5.30
2023-09-27T18:25:15.750Z,5.90
2023-09-27T18:27:43.392Z,5.30
2023-09-27T18:30:11.313Z,4.60
2023-09-27T18:32:38.826Z,6.00
2023-09-27T18:35:06.771Z,5.60
2023-09-27T18:37:34.649Z,5.30
2023-09-27T18:40:02.133Z,5.20
2023-09-27T18:42:29.543Z,5.60
2023-09-27T18:44:56.954Z,5.70
2023-09-27T18:47:24.623Z,4.90
2023-09-27T18:49:52.158Z,5.00
2023-09-27T18:52:19.799Z,5.40
2023-09-27T18:54:49.041Z,5.50
2023-09-27T18:57:16.616Z,5.70
2023-09-27T18:59:44.215Z,5.90
2023-09-27T19:02:11.846Z,5.70
2023-09-27T19:04:39.238Z,5.30
2023-09-27T19:07:06.882Z,5.60
2023-09-27T19:09:34.406Z,5.90
2023-09-27T19:12:01.965Z,6.00
2023-09-27T19:14:29.433Z,5.60
2023-09-27T19:16:57.103Z,5.60
2023-09-27T19:19:24.850Z,5.40
2023-09-27T19:21:52.925Z,5.50
2023-09-27T19:24:20.626Z,5.60
2023-09-27T19:26:48.156Z,5.40
2023-09-27T19:29:15.637Z,5.50
2023-09-27T19:31:43.177Z,5.40
2023-09-27T19:34:10.934Z,5.60
2023-09-27T19:36:38.518Z,5.50
2023-09-27T19:39:06.266Z,5.60
2023-09-27T19:41:33.830Z,5.00
2023-09-27T19:44:01.296Z,5.10
2023-09-27T19:46:29.057Z,4.50
2023-09-27T19:48:56.606Z,5.40
2023-09-27T19:51:27.748Z,5.10
2023-09-27T19:53:56.414Z,4.90
2023-09-27T19:56:24.211Z,5.30
2023-09-27T19:58:51.720Z,4.90
2023-09-27T20:01:27.463Z,5.50
2023-09-27T20:03:55.690Z,5.30
2023-09-27T20:06:23.597Z,5.80
2023-09-27T20:08:51.457Z,5.20
2023-09-27T20:11:18.881Z,5.40
2023-09-27T20:13:46.923Z,5.00
2023-09-27T20:16:14.552Z,4.90
2023-09-27T20:18:42.175Z,5.30
2023-09-27T20:21:09.729Z,4.90
2023-09-27T20:23:38.275Z,4.70
2023-09-27T20:26:06.633Z,5.10
2023-09-27T20:28:34.282Z,5.40
2023-09-27T20:31:02.066Z,5.10
2023-09-27T20:33:29.691Z,4.80
2023-09-27T20:35:57.178Z,5.30
2023-09-27T20:38:24.708Z,5.20
2023-09-27T20:40:52.200Z,5.40
2023-09-27T20:43:19.632Z,5.10
2023-09-27T20:45:47.131Z,5.00
2023-09-27T20:48:14.746Z,5.30
2023-09-27T20:50:42.341Z,5.20
2023-09-27T20:53:09.900Z,5.30
2023-09-27T20:55:37.511Z,4.50
2023-09-27T20:58:05.153Z,5.30
2023-09-27T21:00:32.757Z,5.00
2023-09-27T21:03:01.640Z,5.40
2023-09-27T21:05:33.928Z,4.90
2023-09-27T21:08:01.624Z,5.10
2023-09-27T21:10:29.148Z,5.50
2023-09-27T21:12:56.792Z,5.20
2023-09-27T21:15:24.470Z,5.00
2023-09-27T21:17:51.988Z,5.70
2023-09-27T21:20:19.387Z,4.90
2023-09-27T21:22:46.807Z,4.80
2023-09-27T21:25:14.707Z,5.40
2023-09-27T21:27:42.374Z,5.10
2023-09-27T21:30:10.881Z,5.30
2023-09-27T21:32:38.555Z,4.80
2023-09-27T21:35:07.163Z,5.20
2023-09-27T21:37:34.805Z,5.20
2023-09-27T21:40:02.370Z,4.80
2023-09-27T21:42:29.988Z,5.00
2023-09-27T21:44:57.757Z,5.10
2023-09-27T21:47:25.418Z,5.30
2023-09-27T21:49:52.838Z,4.90
2023-09-27T21:52:20.479Z,5.90
2023-09-27T21:54:48.046Z,5.70
2023-09-27T21:57:16.288Z,6.40
2023-09-27T21:59:43.839Z,5.80
2023-09-27T22:02:12.815Z,5.40
2023-09-27T22:04:40.405Z,6.30
2023-09-27T22:07:08.182Z,6.00
2023-09-27T22:09:35.752Z,6.20
2023-09-27T22:12:03.490Z,6.50
2023-09-27T22:14:31.540Z,6.60
2023-09-27T22:17:04.044Z,5.70
2023-09-27T22:19:31.606Z,5.90
2023-09-27T22:21:59.802Z,6.70
2023-09-27T22:24:31.781Z,6.10
2023-09-27T22:26:59.522Z,6.80
2023-09-27T22:29:26.899Z,7.00
2023-09-27T22:31:59.082Z,7.20
2023-09-27T22:34:35.686Z,7.20
2023-09-27T22:39:32.798Z,7.20
2023-09-27T22:42:03.768Z,6.80
2023-09-27T22:44:34.298Z,7.00
2023-09-27T22:47:01.986Z,7.30
2023-09-27T22:49:29.469Z,6.70
2023-09-27T22:51:57.062Z,6.50
2023-09-27T22:54:24.502Z,7.50
2023-09-27T22:56:53.590Z,7.20
2023-09-27T22:59:22.951Z,6.70
2023-09-27T23:01:56.406Z,7.60
2023-09-27T23:04:24.792Z,7.30
2023-09-27T23:07:02.720Z,6.70
2023-09-27T23:09:37.293Z,7.10
2023-09-27T23:12:18.496Z,6.90
2023-09-27T23:15:04.989Z,7.50
2023-09-27T23:17:52.396Z,7.00
2023-09-27T23:20:28.798Z,7.00
2023-09-27T23:25:40.452Z,6.70
2023-09-27T23:28:08.244Z,7.40
2023-09-27T23:30:35.819Z,8.10
2023-09-27T23:33:04.316Z,7.20
2023-09-27T23:35:32.481Z,7.20
2023-09-27T23:38:11.138Z,7.10
2023-09-27T23:40:43.065Z,7.30
2023-09-27T23:43:17.300Z,8.30
2023-09-27T23:45:46.872Z,7.90
2023-09-27T23:48:14.565Z,7.30
2023-09-27T23:50:42.480Z,7.70
2023-09-27T23:53:11.449Z,7.50
2023-09-27T23:55:42.570Z,7.70
2023-09-27T23:58:14.045Z,7.90
